Time;durP1;ratioP1;P1;durP2;ratioP2;P2;SDS_P1;SDS_P2;PMS_P1;PMS_P2;Temp;Humidity;BMP_temperature;BMP_pressure;BME280_temperature;BME280_humidity;BME280_pressure;Samples;Min_cycle;Max_cycle;Signal;HPM_P1;HPM_P2
2022/10/20 00:01:23;;;;;;;14.93;7.10;;;;;;;9.09;100.00;101490.28;6281027;22;20003;-85
2022/10/20 00:03:49;;;;;;;13.50;6.95;;;;;;;9.10;100.00;101490.09;6280689;22;20010;-85
2022/10/20 00:06:20;;;;;;;16.17;6.95;;;;;;;9.08;100.00;101491.31;6280899;22;20007;-85
2022/10/20 00:08:47;;;;;;;12.68;7.32;;;;;;;9.02;100.00;101465.00;6281081;22;19999;-86
2022/10/20 00:11:17;;;;;;;14.00;7.47;;;;;;;8.95;100.00;101471.19;6255399;22;20007;-85
2022/10/20 00:13:44;;;;;;;13.70;6.63;;;;;;;8.97;100.00;101475.59;6281353;22;20107;-85
2022/10/20 00:16:11;;;;;;;13.65;7.43;;;;;;;8.98;100.00;101480.81;6307981;22;20003;-85
2022/10/20 00:18:47;;;;;;;17.65;8.05;;;;;;;8.91;100.00;101474.47;6307829;22;20011;-85
2022/10/20 00:21:17;;;;;;;14.98;6.47;;;;;;;8.86;100.00;101475.03;6308388;22;20035;-85
2022/10/20 00:23:43;;;;;;;14.52;6.82;;;;;;;8.83;100.00;101471.84;6280428;22;19999;-86
2022/10/20 00:26:18;;;;;;;18.20;7.33;;;;;;;8.88;100.00;101482.97;6281076;22;20014;-86
2022/10/20 00:28:44;;;;;;;16.23;7.65;;;;;;;8.85;100.00;101488.75;6280794;22;20003;-85
2022/10/20 00:31:10;;;;;;;14.82;8.15;;;;;;;8.75;100.00;101461.97;6254952;22;20007;-85
2022/10/20 00:33:36;;;;;;;15.10;8.07;;;;;;;8.73;100.00;101451.34;6280736;22;20090;-85
2022/10/20 00:36:06;;;;;;;16.50;7.83;;;;;;;8.71;100.00;101457.97;6280793;22;20038;-85
2022/10/20 00:38:32;;;;;;;15.18;8.07;;;;;;;8.72;100.00;101460.47;6308103;22;19999;-85
2022/10/20 00:41:04;;;;;;;14.97;8.53;;;;;;;8.68;100.00;101450.22;6280702;22;20064;-85
2022/10/20 00:43:44;;;;;;;15.25;8.23;;;;;;;8.71;100.00;101455.25;6280879;22;20000;-85
2022/10/20 00:46:12;;;;;;;15.15;7.85;;;;;;;8.64;100.00;101436.25;6281795;22;20007;-85
2022/10/20 00:48:39;;;;;;;13.90;8.30;;;;;;;8.68;100.00;101442.09;6282799;22;20056;-86
2022/10/20 00:51:05;;;;;;;14.27;8.10;;;;;;;8.64;100.00;101430.00;6257309;22;20418;-85
2022/10/20 00:53:31;;;;;;;17.80;8.77;;;;;;;8.63;100.00;101442.69;6257194;22;20080;-85
2022/10/20 00:56:01;;;;;;;19.15;8.38;;;;;;;8.66;100.00;101447.72;6283066;22;20303;-85
2022/10/20 00:58:27;;;;;;;20.58;8.40;;;;;;;8.69;100.00;101452.75;6282552;22;20010;-85
2022/10/20 01:00:56;;;;;;;15.68;8.38;;;;;;;8.69;100.00;101455.44;6310107;22;20018;-85
2022/10/20 01:03:30;;;;;;;20.02;9.32;;;;;;;8.66;100.00;101452.28;6310313;22;20003;-85
2022/10/20 01:05:56;;;;;;;17.42;8.50;;;;;;;8.63;100.00;101423.75;6282949;22;20004;-85
2022/10/20 01:08:22;;;;;;;16.17;8.63;;;;;;;8.69;100.00;101432.97;6257213;22;20056;-85
2022/10/20 01:10:55;;;;;;;18.00;8.35;;;;;;;8.71;100.00;101426.34;6256706;22;20030;-85
2022/10/20 01:13:44;;;;;;;15.97;9.73;;;;;;;8.72;100.00;101421.78;6282865;22;20076;-85
2022/10/20 01:16:52;;;;;;;17.25;9.15;;;;;;;8.72;100.00;101406.38;6282771;22;20030;-85
2022/10/20 01:19:23;;;;;;;16.40;8.45;;;;;;;8.73;100.00;101393.69;6261038;22;20144;-85
2022/10/20 01:21:51;;;;;;;14.40;8.45;;;;;;;8.74;100.00;101389.94;6310119;22;20078;-85
2022/10/20 01:24:45;;;;;;;14.82;9.63;;;;;;;8.67;100.00;101375.53;6282318;22;20504;-85
2022/10/20 01:27:34;;;;;;;17.47;9.43;;;;;;;8.76;100.00;101380.63;6309480;22;20451;-85
2022/10/20 01:30:04;;;;;;;19.70;9.50;;;;;;;8.79;100.00;101371.28;6282020;22;20007;-85
2022/10/20 01:32:51;;;;;;;20.05;9.85;;;;;;;8.76;100.00;101368.97;6281818;22;20007;-86
2022/10/20 01:35:34;;;;;;;19.50;9.52;;;;;;;8.78;100.00;101367.75;6309877;22;20003;-85
2022/10/20 01:38:15;;;;;;;20.88;9.68;;;;;;;8.79;100.00;101374.00;6282828;22;20486;-86
2022/10/20 01:40:51;;;;;;;20.20;9.93;;;;;;;8.79;100.00;101374.00;6282283;22;20516;-87
2022/10/20 01:43:20;;;;;;;20.10;10.38;;;;;;;8.82;100.00;101370.91;6282574;22;20007;-86
2022/10/20 01:45:48;;;;;;;21.25;10.40;;;;;;;8.78;100.00;101372.31;6282659;22;20082;-86
2022/10/20 01:48:16;;;;;;;19.27;10.30;;;;;;;8.77;100.00;101378.78;6309669;22;20360;-85
2022/10/20 01:50:43;;;;;;;21.48;10.75;;;;;;;8.82;100.00;101381.72;6281815;22;20035;-85
2022/10/20 01:53:09;;;;;;;20.67;10.27;;;;;;;8.74;100.00;101371.88;6281931;22;20008;-85
2022/10/20 01:55:35;;;;;;;21.15;9.93;;;;;;;8.82;100.00;101372.78;6282092;22;20017;-85
2022/10/20 01:58:20;;;;;;;19.25;9.95;;;;;;;8.77;100.00;101367.94;6282009;22;20090;-86
2022/10/20 02:00:48;;;;;;;19.00;9.27;;;;;;;8.84;100.00;101376.94;6276185;22;20022;-85
2022/10/20 02:03:53;;;;;;;19.42;9.68;;;;;;;8.81;100.00;101385.47;6278622;22;20027;-86
2022/10/20 02:06:55;;;;;;;16.98;9.63;;;;;;;8.78;100.00;101375.88;6271754;22;20480;-85
2022/10/20 02:09:38;;;;;;;20.83;9.68;;;;;;;8.69;100.00;101352.66;6278252;22;20074;-86
2022/10/20 02:12:08;;;;;;;18.05;9.23;;;;;;;8.72;100.00;101349.56;6276834;22;20422;-85
2022/10/20 02:14:36;;;;;;;19.08;8.75;;;;;;;8.73;100.00;101353.13;6278578;22;20437;-86
2022/10/20 02:17:06;;;;;;;19.95;9.55;;;;;;;8.68;100.00;101337.47;6251976;22;20081;-86
2022/10/20 02:19:39;;;;;;;20.27;9.55;;;;;;;8.71;100.00;101345.19;6276914;22;20046;-85
2022/10/20 02:22:10;;;;;;;16.65;8.98;;;;;;;8.73;100.00;101342.28;6276848;22;20004;-86
2022/10/20 02:24:39;;;;;;;19.05;9.75;;;;;;;8.69;100.00;101332.88;6276814;22;20046;-86
2022/10/20 02:27:11;;;;;;;19.58;9.80;;;;;;;8.64;100.00;101321.81;6277022;22;20007;-86
2022/10/20 02:29:59;;;;;;;19.13;9.48;;;;;;;8.62;100.00;101318.44;6277016;22;20000;-85
2022/10/20 02:32:26;;;;;;;20.52;9.90;;;;;;;8.62;100.00;101305.75;6276303;22;20011;-85
2022/10/20 02:34:51;;;;;;;18.75;9.32;;;;;;;8.59;100.00;101301.56;6278349;22;20042;-86
2022/10/20 02:37:17;;;;;;;15.47;9.00;;;;;;;8.59;100.00;101295.31;6276198;22;20003;-86
2022/10/20 02:39:42;;;;;;;20.07;9.80;;;;;;;8.60;100.00;101297.81;6276189;22;20003;-86
2022/10/20 02:42:08;;;;;;;18.67;9.90;;;;;;;8.62;100.00;101294.09;6278296;22;20035;-85
2022/10/20 02:44:42;;;;;;;19.52;9.52;;;;;;;8.65;100.00;101291.00;6251076;22;20239;-86
2022/10/20 02:47:08;;;;;;;18.02;9.63;;;;;;;8.59;100.00;101273.66;6276632;22;20007;-86
2022/10/20 02:49:36;;;;;;;19.03;10.20;;;;;;;8.63;100.00;101279.56;6276364;22;20042;-86
2022/10/20 02:52:02;;;;;;;23.83;9.55;;;;;;;8.62;100.00;101264.34;6250856;22;20035;-86
2022/10/20 02:54:27;;;;;;;18.50;9.97;;;;;;;8.64;100.00;101257.72;6276387;22;20430;-86
2022/10/20 02:56:54;;;;;;;22.60;10.03;;;;;;;8.62;100.00;101248.94;6276513;22;20110;-85
2022/10/20 02:59:19;;;;;;;18.60;10.15;;;;;;;8.64;100.00;101244.19;6283885;22;20445;-86
2022/10/20 03:01:45;;;;;;;19.60;10.20;;;;;;;8.67;100.00;101240.28;6281104;22;20030;-85
2022/10/20 03:04:12;;;;;;;23.95;11.38;;;;;;;8.67;100.00;101245.69;6308931;22;20003;-86
2022/10/20 03:06:39;;;;;;;17.92;9.82;;;;;;;8.69;100.00;101243.59;6281168;22;20011;-85
2022/10/20 03:09:08;;;;;;;18.55;10.48;;;;;;;8.74;100.00;101238.44;6280567;22;20493;-86
2022/10/20 03:11:34;;;;;;;23.48;11.68;;;;;;;8.76;100.00;101225.56;6281581;22;20003;-86
2022/10/20 03:14:02;;;;;;;22.08;11.10;;;;;;;8.82;100.00;101238.31;6308527;22;20025;-85
2022/10/20 03:16:33;;;;;;;23.83;11.38;;;;;;;8.84;100.00;101230.84;6308458;22;20003;-86
2022/10/20 03:19:00;;;;;;;21.70;10.93;;;;;;;8.93;100.00;101239.66;6256164;22;20026;-85
2022/10/20 03:21:26;;;;;;;25.10;12.48;;;;;;;8.91;100.00;101223.63;6281613;22;20008;-85
2022/10/20 03:23:51;;;;;;;22.03;11.80;;;;;;;8.98;100.00;101228.28;6308731;22;20319;-85
2022/10/20 03:26:19;;;;;;;23.90;12.15;;;;;;;8.99;100.00;101214.53;6255863;22;20106;-85
2022/10/20 03:28:45;;;;;;;26.53;12.37;;;;;;;9.00;100.00;101215.38;6280177;22;20329;-86
2022/10/20 03:31:11;;;;;;;20.83;12.13;;;;;;;9.02;100.00;101213.28;6280648;22;20011;-86
2022/10/20 03:33:36;;;;;;;22.43;12.33;;;;;;;9.10;100.00;101213.16;6308277;22;20014;-86
2022/10/20 03:36:02;;;;;;;21.20;12.13;;;;;;;9.10;100.00;101213.97;6308652;22;20031;-85
2022/10/20 03:38:27;;;;;;;24.13;11.45;;;;;;;9.11;100.00;101210.25;6280665;22;20325;-86
2022/10/20 03:40:55;;;;;;;21.90;12.30;;;;;;;9.19;100.00;101214.69;6281485;22;20313;-86
2022/10/20 03:43:20;;;;;;;24.20;12.27;;;;;;;9.20;100.00;101204.69;6255432;22;20045;-86
2022/10/20 03:45:48;;;;;;;26.77;13.00;;;;;;;9.15;100.00;101197.16;6281180;22;20003;-86
2022/10/20 03:48:14;;;;;;;25.23;12.73;;;;;;;9.23;100.00;101205.13;6282079;22;20011;-86
2022/10/20 03:50:43;;;;;;;25.10;12.15;;;;;;;9.23;100.00;101202.44;6255420;22;20478;-85
2022/10/20 03:53:13;;;;;;;24.53;12.27;;;;;;;9.20;100.00;101186.56;6281100;22;20003;-86
2022/10/20 03:55:38;;;;;;;24.95;12.60;;;;;;;9.24;100.00;101190.56;6281006;22;20041;-85
2022/10/20 03:58:03;;;;;;;22.27;12.40;;;;;;;9.28;100.00;101191.81;6255844;22;20456;-86
2022/10/20 04:00:29;;;;;;;24.33;13.23;;;;;;;9.23;100.00;101179.94;6279938;22;20062;-90
2022/10/20 04:02:54;;;;;;;24.53;12.87;;;;;;;9.33;100.00;101193.09;6280590;22;20008;-85
2022/10/20 04:05:20;;;;;;;23.80;12.33;;;;;;;9.30;100.00;101184.34;6280925;22;20010;-85
2022/10/20 04:07:46;;;;;;;23.27;12.75;;;;;;;9.30;100.00;101181.66;6308296;22;20011;-85
2022/10/20 04:10:13;;;;;;;29.93;13.20;;;;;;;9.36;100.00;101180.03;6307913;22;20011;-85
2022/10/20 04:12:40;;;;;;;22.98;12.73;;;;;;;9.34;100.00;101175.81;6280955;22;20003;-85
2022/10/20 04:15:06;;;;;;;24.75;12.90;;;;;;;9.44;100.00;101187.97;6280437;22;20011;-86
2022/10/20 04:17:32;;;;;;;26.70;13.68;;;;;;;9.45;100.00;101181.53;6281226;22;20011;-86
2022/10/20 04:19:58;;;;;;;27.08;13.20;;;;;;;9.45;100.00;101165.28;6280714;22;20417;-86
2022/10/20 04:22:26;;;;;;;25.58;13.73;;;;;;;9.54;100.00;101160.53;6307675;22;20003;-86
2022/10/20 04:24:51;;;;;;;24.77;12.70;;;;;;;9.57;100.00;101154.69;6280725;22;20014;-86
2022/10/20 04:27:19;;;;;;;25.27;13.47;;;;;;;9.59;100.00;101152.63;6280497;22;20378;-86
2022/10/20 04:29:46;;;;;;;23.02;13.73;;;;;;;9.66;100.00;101145.34;6280718;22;19999;-86
2022/10/20 04:32:11;;;;;;;27.80;13.63;;;;;;;9.74;100.00;101140.81;6279953;22;20098;-86
2022/10/20 04:34:37;;;;;;;24.58;13.77;;;;;;;9.80;100.00;101146.25;6307771;22;20121;-86
2022/10/20 04:37:03;;;;;;;24.03;13.03;;;;;;;9.84;100.00;101136.66;6280652;22;20007;-86
2022/10/20 04:39:31;;;;;;;22.65;12.82;;;;;;;9.94;100.00;101144.41;6280587;22;20010;-86
2022/10/20 04:41:56;;;;;;;25.90;13.40;;;;;;;9.99;100.00;101146.50;6281235;22;20086;-86
2022/10/20 04:44:24;;;;;;;23.17;13.30;;;;;;;10.05;100.00;101142.16;6307994;22;20066;-85
2022/10/20 04:46:49;;;;;;;23.98;12.77;;;;;;;10.02;100.00;101124.41;6255786;22;20026;-85
2022/10/20 04:49:15;;;;;;;26.00;13.43;;;;;;;10.08;100.00;101112.75;6280394;22;20004;-86
2022/10/20 04:51:40;;;;;;;23.08;12.27;;;;;;;10.06;100.00;101103.16;6280678;22;20069;-86
2022/10/20 04:54:06;;;;;;;23.20;12.80;;;;;;;10.13;100.00;101126.53;6280774;22;20060;-86
2022/10/20 04:56:31;;;;;;;23.37;13.03;;;;;;;10.12;100.00;101110.47;6280476;22;20310;-86
2022/10/20 04:58:58;;;;;;;26.33;13.00;;;;;;;10.13;100.00;101104.03;6255085;22;20008;-86
2022/10/20 05:01:26;;;;;;;30.20;12.70;;;;;;;10.12;100.00;101102.34;6279273;22;20385;-86
2022/10/20 05:03:54;;;;;;;22.48;12.52;;;;;;;10.13;100.00;101110.28;6280103;22;20456;-86
2022/10/20 05:06:36;;;;;;;23.38;11.68;;;;;;;10.09;100.00;101111.72;6255267;22;20007;-85
2022/10/20 05:09:04;;;;;;;21.08;12.27;;;;;;;10.08;100.00;101120.88;6280088;22;20097;-86
2022/10/20 05:11:30;;;;;;;23.47;12.60;;;;;;;10.09;100.00;101129.88;6280460;22;20000;-86
2022/10/20 05:13:56;;;;;;;24.98;12.43;;;;;;;10.05;100.00;101123.19;6307586;22;20003;-86
2022/10/20 05:16:25;;;;;;;20.55;12.10;;;;;;;10.03;100.00;101101.69;6280462;22;20004;-86
2022/10/20 05:18:54;;;;;;;24.48;13.00;;;;;;;10.01;100.00;101087.53;6280355;22;20065;-86
2022/10/20 05:21:23;;;;;;;26.33;13.02;;;;;;;9.97;100.00;101073.53;6279979;22;20000;-86
2022/10/20 05:23:55;;;;;;;24.73;13.20;;;;;;;9.98;100.00;101082.50;6307386;22;20057;-85
2022/10/20 05:26:20;;;;;;;24.20;11.77;;;;;;;9.97;100.00;101100.63;6280830;22;20376;-86
2022/10/20 05:28:48;;;;;;;23.03;12.80;;;;;;;9.90;100.00;101096.25;6307988;22;20056;-86
2022/10/20 05:31:15;;;;;;;26.43;12.70;;;;;;;9.91;100.00;101090.63;6307092;22;20242;-86
2022/10/20 05:33:46;;;;;;;21.33;12.38;;;;;;;9.89;100.00;101110.84;6281417;22;20015;-86
2022/10/20 05:36:14;;;;;;;23.52;12.45;;;;;;;9.89;100.00;101108.13;6282142;22;20068;-86
2022/10/20 05:38:40;;;;;;;25.42;12.52;;;;;;;9.85;100.00;101091.44;6281985;22;20003;-86
2022/10/20 05:41:10;;;;;;;24.55;12.95;;;;;;;9.80;100.00;101072.25;6282034;22;20101;-86
2022/10/20 05:43:36;;;;;;;23.80;12.53;;;;;;;9.78;100.00;101068.91;6309441;22;20500;-86
2022/10/20 05:46:07;;;;;;;22.33;12.60;;;;;;;9.81;100.00;101082.88;6282036;22;20042;-86
2022/10/20 05:48:33;;;;;;;25.05;12.90;;;;;;;9.83;100.00;101094.38;6309591;22;20477;-85
2022/10/20 05:51:14;;;;;;;23.13;12.75;;;;;;;9.82;100.00;101105.41;6256669;22;20047;-86
2022/10/20 05:53:39;;;;;;;23.63;13.00;;;;;;;9.81;100.00;101101.03;6281756;22;19999;-84
2022/10/20 05:56:07;;;;;;;23.27;13.10;;;;;;;9.84;100.00;101103.31;6282000;22;20013;-88
2022/10/20 05:58:33;;;;;;;25.43;13.13;;;;;;;9.83;100.00;101088.09;6282006;22;20485;-85
2022/10/20 06:01:05;;;;;;;26.58;13.45;;;;;;;9.86;100.00;101103.13;6281435;22;20094;-84
2022/10/20 06:03:31;;;;;;;25.73;12.68;;;;;;;9.85;100.00;101091.44;6309221;22;20018;-84
2022/10/20 06:05:58;;;;;;;24.53;12.63;;;;;;;9.87;100.00;101092.06;6309337;22;20007;-84
2022/10/20 06:08:23;;;;;;;25.38;13.02;;;;;;;9.92;100.00;101094.16;6282239;22;20004;-84
2022/10/20 06:10:48;;;;;;;23.53;13.70;;;;;;;9.95;100.00;101088.31;6281455;22;20012;-84
2022/10/20 06:13:14;;;;;;;22.93;12.80;;;;;;;9.97;100.00;101086.25;6281667;22;20068;-84
2022/10/20 06:15:39;;;;;;;23.92;12.27;;;;;;;9.97;100.00;101092.50;6308530;22;20007;-84
2022/10/20 06:18:04;;;;;;;23.02;12.57;;;;;;;10.04;100.00;101089.81;6281507;22;20302;-84
2022/10/20 06:20:30;;;;;;;22.60;12.93;;;;;;;10.05;100.00;101099.59;6255135;22;20160;-84
2022/10/20 06:22:55;;;;;;;20.27;12.07;;;;;;;10.11;100.00;101098.81;6281040;22;20419;-84
2022/10/20 06:25:21;;;;;;;28.17;13.33;;;;;;;10.17;100.00;101100.69;6281549;22;20015;-84
2022/10/20 06:27:46;;;;;;;22.97;12.87;;;;;;;10.21;100.00;101106.53;6255566;22;20008;-84
2022/10/20 06:30:11;;;;;;;23.70;12.40;;;;;;;10.26;100.00;101090.47;6281216;22;20007;-84
2022/10/20 06:32:37;;;;;;;21.83;12.87;;;;;;;10.29;100.00;101086.50;6281066;22;20448;-84
2022/10/20 06:35:05;;;;;;;27.77;12.27;;;;;;;10.33;100.00;101094.06;6281583;22;20010;-84
2022/10/20 06:37:30;;;;;;;24.88;12.23;;;;;;;10.40;100.00;101082.38;6308549;22;20061;-85
2022/10/20 06:39:55;;;;;;;19.27;11.70;;;;;;;10.44;100.00;101075.50;6281182;22;20357;-84
2022/10/20 06:42:21;;;;;;;19.97;12.37;;;;;;;10.47;100.00;101081.31;6281323;22;20003;-84
2022/10/20 06:44:46;;;;;;;22.90;12.40;;;;;;;10.51;100.00;101079.88;6308807;22;20088;-84
2022/10/20 06:47:12;;;;;;;21.77;11.87;;;;;;;10.56;100.00;101083.84;6255946;22;20094;-84
2022/10/20 06:49:37;;;;;;;22.60;12.03;;;;;;;10.63;100.00;101084.66;6255861;22;20066;-84
2022/10/20 06:52:03;;;;;;;22.57;13.03;;;;;;;10.67;100.00;101078.63;6255446;22;20003;-84
2022/10/20 06:54:28;;;;;;;23.20;12.27;;;;;;;10.71;100.00;101074.41;6255678;22;20299;-84
2022/10/20 06:56:54;;;;;;;21.10;11.77;;;;;;;10.77;100.00;101075.44;6281329;22;20042;-83
2022/10/20 06:59:20;;;;;;;17.83;11.20;;;;;;;10.82;100.00;101072.94;6255601;22;20041;-84
2022/10/20 07:01:45;;;;;;;23.03;11.93;;;;;;;10.87;100.00;101062.28;6255301;22;20041;-84
2022/10/20 07:04:13;;;;;;;24.23;11.77;;;;;;;10.93;100.00;101057.06;6255610;22;20019;-84
2022/10/20 07:06:43;;;;;;;20.47;11.40;;;;;;;11.00;100.00;101047.03;6281585;22;20011;-84
2022/10/20 07:09:15;;;;;;;22.98;11.65;;;;;;;11.02;100.00;101059.31;6281384;22;20004;-84
2022/10/20 07:11:41;;;;;;;20.85;10.98;;;;;;;11.10;100.00;101068.28;6281003;22;20021;-84
2022/10/20 07:14:08;;;;;;;18.80;10.90;;;;;;;11.15;100.00;101072.03;6281273;22;20015;-84
2022/10/20 07:16:34;;;;;;;20.70;10.73;;;;;;;11.23;100.00;101071.81;6281722;22;20096;-84
2022/10/20 07:19:03;;;;;;;19.00;10.90;;;;;;;11.30;100.00;101071.75;6255938;22;20007;-84
2022/10/20 07:21:30;;;;;;;19.83;10.95;;;;;;;11.37;100.00;101063.59;6281194;22;20057;-84
2022/10/20 07:23:55;;;;;;;16.67;11.32;;;;;;;11.42;100.00;101063.78;6281359;22;20007;-84
2022/10/20 07:26:26;;;;;;;17.87;11.10;;;;;;;11.48;100.00;101068.34;6308525;22;20003;-84
2022/10/20 07:28:58;;;;;;;22.33;10.20;;;;;;;11.52;100.00;101066.88;6280708;22;20007;-84
2022/10/20 07:31:29;;;;;;;18.25;10.95;;;;;;;11.61;100.00;101072.88;6308352;22;20052;-84
2022/10/20 07:33:57;;;;;;;16.23;10.18;;;;;;;11.68;100.00;101079.13;6281940;22;20003;-84
2022/10/20 07:36:30;;;;;;;20.80;10.80;;;;;;;11.78;100.00;101078.66;6256091;22;20333;-84
2022/10/20 07:38:58;;;;;;;19.53;10.87;;;;;;;11.83;100.00;101081.53;6281143;22;20018;-84
2022/10/20 07:41:25;;;;;;;21.75;10.95;;;;;;;11.91;100.00;101075.00;6280880;22;20025;-84
2022/10/20 07:43:51;;;;;;;19.95;10.45;;;;;;;11.99;100.00;101071.22;6255761;22;20017;-84
2022/10/20 07:46:16;;;;;;;22.65;11.00;;;;;;;12.08;100.00;101069.94;6281000;22;20086;-84
2022/10/20 07:48:42;;;;;;;16.53;10.23;;;;;;;12.19;100.00;101071.91;6281300;22;20007;-84
2022/10/20 07:51:27;;;;;;;16.20;9.67;;;;;;;12.29;100.00;101074.16;6280699;22;20086;-85
2022/10/20 07:53:55;;;;;;;20.63;9.90;;;;;;;12.35;100.00;101075.16;6280652;22;20010;-83
2022/10/20 07:56:21;;;;;;;18.52;11.02;;;;;;;12.40;100.00;101078.88;6280595;22;20084;-85
2022/10/20 07:58:47;;;;;;;25.13;10.57;;;;;;;12.45;100.00;101081.75;6308232;22;20424;-85
2022/10/20 08:01:12;;;;;;;18.90;10.23;;;;;;;12.53;99.97;101074.38;6307488;22;20019;-85
2022/10/20 08:03:38;;;;;;;17.43;10.70;;;;;;;12.64;99.50;101084.56;6254374;22;20337;-85
2022/10/20 08:06:04;;;;;;;24.47;11.07;;;;;;;12.74;98.53;101063.09;6280696;22;20053;-85
2022/10/20 08:08:30;;;;;;;20.25;10.63;;;;;;;12.84;98.20;101065.28;6230041;22;20007;-85
2022/10/20 08:10:57;;;;;;;17.70;10.13;;;;;;;12.95;97.76;101067.28;6280771;22;20422;-85
2022/10/20 08:13:24;;;;;;;18.77;10.00;;;;;;;13.05;96.73;101071.34;6281226;22;20061;-85
2022/10/20 08:15:49;;;;;;;18.25;10.75;;;;;;;13.18;96.31;101065.75;6280065;22;20014;-85
2022/10/20 08:18:15;;;;;;;15.27;10.00;;;;;;;13.26;95.87;101062.72;6280410;22;19999;-85
2022/10/20 08:20:40;;;;;;;16.47;9.43;;;;;;;13.35;94.86;101057.84;6308124;22;20007;-85
2022/10/20 08:23:06;;;;;;;18.03;9.90;;;;;;;13.36;94.75;101062.25;6255039;22;20078;-85
2022/10/20 08:25:32;;;;;;;18.67;9.82;;;;;;;13.47;94.17;101056.00;6280346;22;20011;-85
2022/10/20 08:27:57;;;;;;;16.67;9.13;;;;;;;13.53;93.86;101051.53;6280729;22;20079;-85
2022/10/20 08:30:22;;;;;;;15.73;9.87;;;;;;;13.59;92.95;101058.78;6307681;22;20333;-85
2022/10/20 08:32:52;;;;;;;15.18;9.05;;;;;;;13.60;93.15;101052.28;6280260;22;20007;-84
2022/10/20 08:35:18;;;;;;;16.70;9.07;;;;;;;13.68;92.83;101056.56;6280614;22;20007;-85
2022/10/20 08:37:44;;;;;;;14.90;9.02;;;;;;;13.74;92.39;101060.25;6280449;22;20352;-85
2022/10/20 08:40:15;;;;;;;18.90;9.00;;;;;;;13.75;91.92;101065.47;6280666;22;20000;-85
2022/10/20 08:42:44;;;;;;;14.48;9.40;;;;;;;13.93;91.59;101055.59;6279493;22;20037;-85
2022/10/20 08:45:16;;;;;;;14.52;9.25;;;;;;;14.05;91.19;101056.44;6280687;22;20056;-85
2022/10/20 08:47:42;;;;;;;16.85;8.88;;;;;;;14.13;90.26;101045.19;6280569;22;20029;-85
2022/10/20 08:50:15;;;;;;;16.85;9.18;;;;;;;14.27;89.32;101051.25;6307917;22;20004;-85
2022/10/20 08:52:42;;;;;;;16.37;9.50;;;;;;;14.43;89.08;101038.81;6280598;22;20008;-85
2022/10/20 08:55:35;;;;;;;21.42;8.70;;;;;;;14.57;88.17;101023.03;6279801;22;20057;-85
2022/10/20 08:58:06;;;;;;;17.50;9.05;;;;;;;14.81;87.60;101032.09;6307849;22;20048;-85
2022/10/20 09:00:35;;;;;;;14.88;8.73;;;;;;;14.89;86.86;101023.50;6274045;22;20449;-86
2022/10/20 09:03:26;;;;;;;16.92;8.90;;;;;;;14.99;87.36;101022.91;6273009;22;20010;-85
2022/10/20 09:05:57;;;;;;;15.97;8.97;;;;;;;15.08;85.64;101028.84;6275525;22;20008;-84
2022/10/20 09:08:28;;;;;;;11.82;8.13;;;;;;;15.20;84.96;101028.81;6277023;22;20010;-84
2022/10/20 09:10:54;;;;;;;13.90;8.43;;;;;;;15.31;84.81;101033.41;6278804;22;20003;-84
2022/10/20 09:13:55;;;;;;;14.50;8.25;;;;;;;15.49;85.70;101034.31;6278998;22;20070;-85
2022/10/20 09:16:37;;;;;;;17.33;7.68;;;;;;;15.48;84.75;101027.16;6278834;22;20000;-84
2022/10/20 09:19:05;;;;;;;17.03;8.37;;;;;;;15.39;83.95;101030.28;6278538;22;20011;-85
2022/10/20 09:21:34;;;;;;;20.10;8.30;;;;;;;15.37;83.99;101035.16;6277054;22;20011;-84
2022/10/20 09:24:01;;;;;;;11.20;8.48;;;;;;;15.34;84.50;101034.81;6278450;22;20057;-85
2022/10/20 09:26:27;;;;;;;14.30;9.27;;;;;;;15.32;84.63;101034.22;6276684;22;20038;-84
2022/10/20 09:29:18;;;;;;;19.30;8.70;;;;;;;15.23;85.37;101023.66;6278863;22;20003;-84
2022/10/20 09:31:51;;;;;;;14.35;8.40;;;;;;;15.23;84.84;101017.38;6277156;22;20107;-85
2022/10/20 09:34:31;;;;;;;16.05;8.68;;;;;;;15.22;85.53;101023.91;6277181;22;20031;-85
2022/10/20 09:37:11;;;;;;;18.33;8.10;;;;;;;15.21;85.31;101030.47;6278714;22;20003;-85
2022/10/20 09:39:45;;;;;;;13.13;7.93;;;;;;;15.16;85.92;101033.94;6277233;22;20011;-84
2022/10/20 09:42:18;;;;;;;14.52;7.78;;;;;;;15.00;86.58;101030.03;6278763;22;20015;-85
2022/10/20 09:44:51;;;;;;;15.80;8.00;;;;;;;14.91;87.01;101034.19;6277145;22;20039;-85
2022/10/20 09:47:16;;;;;;;15.07;7.97;;;;;;;14.87;87.09;101043.97;6277146;22;20012;-84
2022/10/20 09:49:44;;;;;;;12.87;8.07;;;;;;;14.77;88.00;101058.22;6277210;22;20413;-84
2022/10/20 09:52:22;;;;;;;13.68;8.45;;;;;;;14.63;89.31;101052.16;6276920;22;20094;-84
2022/10/20 09:54:50;;;;;;;11.20;8.02;;;;;;;14.56;89.40;101033.13;6278714;22;20079;-84
2022/10/20 09:57:20;;;;;;;13.77;7.93;;;;;;;14.51;90.01;101021.25;6277092;22;20418;-85
2022/10/20 09:59:50;;;;;;;15.10;8.30;;;;;;;14.38;90.57;101023.16;6279012;22;20053;-85
2022/10/20 10:02:16;;;;;;;17.65;8.13;;;;;;;14.34;92.26;101021.97;6255696;22;20023;-85
2022/10/20 10:04:44;;;;;;;16.92;8.93;;;;;;;14.12;94.69;101023.59;6309210;22;20007;-84
2022/10/20 10:07:31;;;;;;;14.32;8.68;;;;;;;13.77;97.33;101017.00;6308612;22;20528;-85
2022/10/20 10:09:59;;;;;;;14.83;9.43;;;;;;;13.48;100.00;101027.69;6309410;22;20011;-85
2022/10/20 10:12:27;;;;;;;21.75;9.77;;;;;;;13.27;100.00;101022.69;6282786;22;20030;-85
2022/10/20 10:15:00;;;;;;;18.15;10.45;;;;;;;13.16;100.00;101024.28;6308942;22;20022;-86
2022/10/20 10:17:34;;;;;;;19.38;10.55;;;;;;;13.08;100.00;101038.22;6281900;22;20015;-85
2022/10/20 10:20:04;;;;;;;20.55;11.10;;;;;;;12.96;100.00;101021.78;6281333;22;20405;-86
2022/10/20 10:22:32;;;;;;;20.37;11.00;;;;;;;12.93;100.00;101014.09;6257312;22;20015;-85
2022/10/20 10:25:01;;;;;;;19.05;10.93;;;;;;;12.89;100.00;101005.53;6281751;22;20007;-85
2022/10/20 10:27:35;;;;;;;18.23;11.02;;;;;;;12.87;100.00;101006.81;6309263;22;20066;-85
2022/10/20 10:30:27;;;;;;;19.13;11.85;;;;;;;12.94;100.00;100999.41;6281969;22;20425;-86
2022/10/20 10:32:52;;;;;;;21.80;11.98;;;;;;;13.04;100.00;100997.00;6281290;22;20451;-86
2022/10/20 10:35:24;;;;;;;22.00;11.20;;;;;;;13.08;100.00;100992.75;6308814;22;20003;-86
2022/10/20 10:37:52;;;;;;;19.52;11.40;;;;;;;13.08;100.00;100978.28;6308801;22;20003;-85
2022/10/20 10:40:20;;;;;;;21.02;12.25;;;;;;;13.12;100.00;100987.66;6281600;22;20074;-86
2022/10/20 10:42:48;;;;;;;20.30;12.18;;;;;;;13.12;100.00;100993.97;6308618;22;20097;-85
2022/10/20 10:45:45;;;;;;;22.08;11.98;;;;;;;13.12;100.00;100998.56;6281781;22;20003;-86
2022/10/20 10:48:32;;;;;;;22.47;11.90;;;;;;;13.17;100.00;101006.91;6308785;22;20061;-85
2022/10/20 10:51:01;;;;;;;22.85;12.30;;;;;;;13.19;100.00;101004.75;6281525;22;20014;-86
2022/10/20 10:53:29;;;;;;;20.80;12.32;;;;;;;13.17;100.00;101006.91;6281150;22;20007;-86
2022/10/20 10:56:26;;;;;;;26.15;12.27;;;;;;;13.20;100.00;101011.03;6281383;22;20010;-86
2022/10/20 10:59:03;;;;;;;20.98;12.30;;;;;;;13.19;100.00;100993.03;6281339;22;20039;-86
2022/10/20 11:02:01;;;;;;;23.83;12.60;;;;;;;13.19;100.00;101006.66;6280369;22;20015;-88
2022/10/20 11:04:46;;;;;;;22.10;12.23;;;;;;;13.17;100.00;100993.28;6288209;22;20361;-86
2022/10/20 11:07:39;;;;;;;24.13;13.18;;;;;;;13.17;100.00;100976.94;6281613;22;20014;-86
2022/10/20 11:10:24;;;;;;;24.05;12.35;;;;;;;13.19;100.00;100974.78;6281412;22;20011;-86
2022/10/20 11:13:01;;;;;;;22.98;12.73;;;;;;;13.20;100.00;100971.03;6281708;22;20061;-86
2022/10/20 11:15:38;;;;;;;22.67;12.83;;;;;;;13.22;100.00;100976.22;6308545;22;20429;-86
2022/10/20 11:18:35;;;;;;;27.08;14.18;;;;;;;13.27;100.00;100974.50;6281309;22;20010;-86
2022/10/20 11:21:06;;;;;;;29.05;13.05;;;;;;;13.27;100.00;100968.19;6147288;22;20701;-86
2022/10/20 11:23:44;;;;;;;24.67;13.30;;;;;;;13.27;100.00;100973.63;6308738;22;20430;-86